Tropical Cyclones
[Index]
Main Index Home Page Stock Weather Photos Extreme Storms Discussion Storm News and Storm Chasing Reports Tropical Cyclones / Hurricanes / Typhoons Weather Data and Links Wild Fires / Bushfires Weather Observation Techniques Weather Picture Catalogue Tornado Pictures and Reports Stock Video Footage and DVDs for sale
Season 1988-1989 Tropical Cyclone DELILAH Track Map
Season 1988-1989 Summaries: [BoM-AU] [JTWC-AU] [JTWC-SIO] [JTWC-SPAC] [JTWC-SH]
<<- Previous TC | JTWC 1988-1989 Season | Next TC ->>

click for intensity scale information  Lat/long Grid: Show Hide

 Date Labels: Show Hide

Joint Typhoon Warning Centre Cyclone Data

Name: DELILAH

29 Dec 1988 06:00 UTC to 04 Jan 1989 00:00 UTC

    date/time    lat    long     hPa   cat  kts
1988-12-29 06   19.0   147.0                  25          
1988-12-29 12   18.8   147.3                  25          
1988-12-29 18   18.7   147.7                  25          
1988-12-30 00   18.6   148.2                  25          
1988-12-30 06   18.5   148.5                  30          
1988-12-30 12   18.4   149.0                  30          
1988-12-30 18   18.3   149.6                  30          
1988-12-31 00   18.2   150.1                  30          
1988-12-31 06   18.0   151.0                  30          
1988-12-31 12   17.8   152.5                  30          
1988-12-31 18   17.8   154.1                  30          
1989-01-01 00   17.9   155.6                  35          
1989-01-01 06   18.1   157.3            1     45          
1989-01-01 12   18.3   159.2            1     45          
1989-01-01 18   18.7   161.2            1     45          
1989-01-02 00   19.4   163.0            2     55          
1989-01-02 06   20.2   165.0            2     60          
1989-01-02 12   21.2   166.7            2     55          
1989-01-02 18   22.3   167.8            2     55          
1989-01-03 00   23.4   168.8            2     55          
1989-01-03 06   24.4   169.3            1     45          
1989-01-03 12   25.5   169.6            1     45          
1989-01-03 18   26.6   169.9            1     45          
1989-01-04 00   27.7   170.0            1     45          
Winds are 1-min average.

Tropical cyclone tracks developed by Michael Bath using data from the Joint Typhoon Warning Centre Best Tracks and Google Maps.


[Australian Severe Weather index] [Copyright Notice] [Email Contacts] [Search This Site] [Privacy Policy]
Document: tropical_cyclone_delilah.htm Updated: 18 September 2016